createdAt,value
2022-12-12T00:00:24.178Z,4.37
2022-12-12T00:01:25.694Z,4.27
2022-12-12T00:02:27.326Z,4.70
2022-12-12T00:03:29.098Z,4.23
2022-12-12T00:04:30.683Z,4.47
2022-12-12T00:05:32.203Z,4.07
2022-12-12T00:06:33.773Z,4.57
2022-12-12T00:07:35.705Z,4.27
2022-12-12T00:08:37.900Z,4.60
2022-12-12T00:09:39.480Z,4.30
2022-12-12T00:10:41.046Z,3.70
2022-12-12T00:11:42.642Z,4.37
2022-12-12T00:12:44.259Z,3.93
2022-12-12T00:13:46.308Z,3.83
2022-12-12T00:14:47.906Z,4.20
2022-12-12T00:15:49.852Z,3.77
2022-12-12T00:16:51.475Z,4.70
2022-12-12T00:17:53.158Z,4.20
2022-12-12T00:18:55.041Z,4.27
2022-12-12T00:19:56.606Z,4.23
2022-12-12T00:20:58.954Z,4.33
2022-12-12T00:22:00.484Z,4.40
2022-12-12T00:23:02.067Z,4.27
2022-12-12T00:24:03.767Z,4.60
2022-12-12T00:25:06.044Z,4.13
2022-12-12T00:26:14.995Z,3.87
2022-12-12T00:27:16.531Z,4.37
2022-12-12T00:28:18.082Z,5.00
2022-12-12T00:29:19.624Z,4.77
2022-12-12T00:30:21.205Z,7.20
2022-12-12T00:31:23.280Z,6.40
2022-12-12T00:32:24.871Z,5.90
2022-12-12T00:33:26.505Z,5.47
2022-12-12T00:34:28.047Z,6.00
2022-12-12T00:35:29.557Z,5.50
2022-12-12T00:36:32.100Z,5.83
2022-12-12T00:37:33.771Z,5.43
2022-12-12T00:38:35.449Z,6.03
2022-12-12T00:39:37.044Z,5.60
2022-12-12T00:40:38.592Z,5.53
2022-12-12T00:41:40.175Z,5.30
2022-12-12T00:42:41.756Z,5.20
2022-12-12T00:43:43.450Z,5.47
2022-12-12T00:44:44.967Z,4.50
2022-12-12T00:45:46.557Z,4.90
2022-12-12T00:46:48.175Z,4.73
2022-12-12T00:47:49.829Z,4.20
2022-12-12T00:48:55.005Z,3.70
2022-12-12T00:49:56.608Z,3.90
2022-12-12T00:50:58.469Z,3.00
2022-12-12T00:51:59.993Z,3.37
2022-12-12T00:53:01.651Z,3.33
2022-12-12T00:54:03.249Z,3.33
2022-12-12T00:55:05.354Z,3.53
2022-12-12T00:56:07.216Z,3.80
2022-12-12T00:57:08.873Z,3.77
2022-12-12T00:58:10.654Z,3.30
2022-12-12T00:59:12.210Z,3.17
2022-12-12T01:00:14.562Z,3.70
2022-12-12T01:01:19.199Z,3.33
2022-12-12T01:02:26.398Z,3.83
2022-12-12T01:03:31.389Z,3.80
2022-12-12T01:04:33.433Z,3.60
2022-12-12T01:05:35.373Z,3.60
2022-12-12T01:06:36.948Z,3.60
2022-12-12T01:07:38.466Z,4.10
2022-12-12T01:08:40.770Z,3.70
2022-12-12T01:09:42.341Z,3.50
2022-12-12T01:10:43.939Z,3.50
2022-12-12T01:11:45.607Z,3.50
2022-12-12T01:12:47.187Z,3.17
2022-12-12T01:13:51.325Z,3.43
2022-12-12T01:14:53.078Z,3.60
2022-12-12T01:15:54.768Z,3.50
2022-12-12T01:16:56.398Z,3.63
2022-12-12T01:17:57.968Z,3.80
2022-12-12T01:18:59.692Z,3.60
2022-12-12T01:20:02.883Z,4.10
2022-12-12T01:21:07.907Z,3.83
2022-12-12T01:22:09.950Z,3.57
2022-12-12T01:23:11.684Z,4.20
2022-12-12T01:24:13.202Z,4.13
2022-12-12T01:25:16.145Z,3.80
2022-12-12T01:26:20.750Z,3.70
2022-12-12T01:27:22.668Z,3.80
2022-12-12T01:28:24.178Z,3.80
2022-12-12T01:29:25.784Z,3.63
2022-12-12T01:30:27.718Z,3.63
2022-12-12T01:31:29.371Z,4.43
2022-12-12T01:32:30.958Z,4.00
2022-12-12T01:33:32.728Z,4.17
2022-12-12T01:34:34.230Z,3.80
2022-12-12T01:35:35.737Z,4.20
2022-12-12T01:36:37.410Z,3.87
2022-12-12T01:37:40.418Z,3.73
2022-12-12T01:38:46.329Z,3.87
2022-12-12T01:39:47.952Z,4.60
2022-12-12T01:40:49.584Z,4.10
2022-12-12T01:41:51.152Z,3.63
2022-12-12T01:42:53.636Z,3.77
2022-12-12T01:43:55.370Z,3.47
2022-12-12T01:44:56.937Z,3.50
2022-12-12T01:45:58.585Z,3.57
2022-12-12T01:47:00.206Z,3.93
2022-12-12T01:48:05.219Z,3.90
2022-12-12T01:49:16.147Z,3.50
2022-12-12T01:50:17.706Z,4.13
2022-12-12T01:51:22.211Z,3.93
2022-12-12T01:52:28.432Z,4.00
2022-12-12T01:53:32.987Z,4.10
2022-12-12T01:54:40.758Z,4.20
2022-12-12T01:55:42.650Z,3.37
2022-12-12T01:56:46.089Z,3.40
2022-12-12T01:57:52.176Z,3.50
2022-12-12T01:58:55.849Z,3.73
2022-12-12T01:59:59.665Z,4.07
2022-12-12T02:01:02.132Z,4.17
2022-12-12T02:02:04.741Z,3.90
2022-12-12T02:03:06.672Z,3.60
2022-12-12T02:04:09.794Z,3.50
2022-12-12T02:05:28.127Z,3.80
2022-12-12T02:06:30.338Z,4.17
2022-12-12T02:07:31.970Z,4.27
2022-12-12T02:08:35.018Z,4.20
2022-12-12T02:09:37.370Z,4.60
2022-12-12T02:10:39.581Z,4.80
2022-12-12T02:11:48.342Z,5.00
2022-12-12T02:12:49.986Z,4.83
2022-12-12T02:13:51.646Z,5.30
2022-12-12T02:14:53.859Z,5.60
2022-12-12T02:16:10.664Z,5.60
2022-12-12T02:17:38.216Z,5.93
2022-12-12T02:18:51.905Z,5.20
2022-12-12T02:20:25.577Z,5.10
2022-12-12T02:21:40.488Z,4.63
2022-12-12T02:23:16.104Z,4.50
2022-12-12T02:25:02.730Z,5.27
2022-12-12T02:26:19.185Z,5.00
2022-12-12T02:28:02.917Z,4.07
2022-12-12T02:29:04.387Z,4.10
2022-12-12T02:30:05.899Z,3.87
2022-12-12T02:31:34.955Z,4.23
2022-12-12T02:33:30.708Z,5.00
2022-12-12T02:34:54.739Z,4.13
2022-12-12T02:36:11.482Z,4.80
2022-12-12T02:37:24.799Z,4.40
2022-12-12T02:38:36.745Z,4.57
2022-12-12T02:40:10.417Z,4.30
2022-12-12T02:41:25.260Z,3.80
2022-12-12T02:42:41.191Z,4.60
2022-12-12T02:43:59.333Z,4.33
2022-12-12T02:45:06.901Z,4.87
2022-12-12T02:46:24.332Z,4.20
2022-12-12T02:47:31.697Z,4.47
2022-12-12T02:48:40.465Z,4.63
2022-12-12T02:49:50.001Z,4.60
2022-12-12T02:50:54.434Z,3.83
2022-12-12T02:51:58.333Z,4.10
2022-12-12T02:53:00.513Z,3.83
2022-12-12T02:54:04.630Z,3.77
2022-12-12T02:55:06.775Z,4.10
2022-12-12T02:56:45.930Z,3.93
2022-12-12T02:57:48.836Z,4.90
2022-12-12T02:58:50.392Z,4.27
2022-12-12T02:59:55.734Z,4.20
2022-12-12T03:01:15.490Z,3.93
2022-12-12T03:02:41.463Z,4.17
2022-12-12T03:04:09.818Z,3.80
2022-12-12T03:05:48.894Z,4.43
2022-12-12T03:07:21.847Z,4.47
2022-12-12T03:08:36.107Z,4.87
2022-12-12T03:10:04.610Z,5.10
2022-12-12T03:11:14.674Z,4.90
2022-12-12T03:12:31.840Z,5.07
2022-12-12T03:14:21.369Z,4.97
2022-12-12T03:15:28.029Z,4.90
2022-12-12T03:16:43.725Z,5.50
2022-12-12T03:17:53.929Z,5.30
2022-12-12T03:19:16.325Z,5.23
2022-12-12T03:20:25.696Z,5.97
2022-12-12T03:21:50.066Z,6.00
2022-12-12T03:23:09.259Z,5.63
2022-12-12T03:24:39.837Z,5.73
2022-12-12T03:25:54.043Z,4.70
2022-12-12T03:27:02.922Z,4.10
2022-12-12T03:28:12.436Z,5.27
2022-12-12T03:29:17.828Z,6.00
2022-12-12T03:30:20.177Z,5.67
2022-12-12T03:31:28.466Z,6.13
2022-12-12T03:32:38.472Z,5.47
2022-12-12T03:33:47.429Z,5.77
2022-12-12T03:35:14.301Z,5.43
2022-12-12T03:36:18.943Z,5.87
2022-12-12T03:37:30.817Z,5.17
2022-12-12T03:38:36.712Z,4.60
2022-12-12T03:39:53.498Z,4.50
2022-12-12T03:41:01.945Z,4.53
2022-12-12T03:42:12.660Z,4.20
2022-12-12T03:43:21.713Z,4.63
2022-12-12T03:44:30.962Z,5.60
2022-12-12T03:46:03.489Z,5.03
2022-12-12T03:47:11.445Z,5.83
2022-12-12T03:48:25.787Z,5.63
2022-12-12T03:49:39.311Z,5.40
2022-12-12T03:50:58.195Z,5.30
2022-12-12T03:52:06.589Z,5.63
2022-12-12T03:53:17.466Z,5.17
2022-12-12T03:54:27.556Z,4.97
2022-12-12T03:55:45.830Z,4.57
2022-12-12T03:56:47.505Z,4.77
2022-12-12T03:57:57.367Z,5.10
2022-12-12T03:59:10.927Z,5.43
2022-12-12T04:00:15.212Z,4.70
2022-12-12T04:01:21.167Z,5.17
2022-12-12T04:02:44.282Z,5.07
2022-12-12T04:03:58.773Z,5.13
2022-12-12T04:05:18.733Z,5.03
2022-12-12T04:06:36.299Z,5.00
2022-12-12T04:07:49.706Z,5.73
2022-12-12T04:09:11.221Z,4.73
2022-12-12T04:10:31.705Z,5.10
2022-12-12T04:12:00.683Z,5.30
2022-12-12T04:13:08.388Z,5.17
2022-12-12T04:14:48.130Z,5.20
2022-12-12T04:16:04.694Z,4.90
2022-12-12T04:17:08.906Z,4.47
2022-12-12T04:18:22.431Z,4.90
2022-12-12T04:20:18.297Z,4.80
2022-12-12T04:21:59.776Z,5.47
2022-12-12T04:23:22.855Z,5.50
2022-12-12T04:24:30.304Z,6.00
2022-12-12T04:26:05.658Z,6.50
2022-12-12T04:27:25.718Z,6.00
2022-12-12T04:28:30.511Z,5.53
2022-12-12T04:29:45.755Z,6.53
2022-12-12T04:30:47.399Z,5.77
2022-12-12T04:31:56.480Z,7.30
2022-12-12T04:33:14.346Z,6.70
2022-12-12T04:34:35.102Z,7.67
2022-12-12T04:35:41.987Z,7.37
2022-12-12T04:36:47.278Z,6.47
2022-12-12T04:37:52.775Z,7.03
2022-12-12T04:38:56.075Z,7.47
2022-12-12T04:40:01.554Z,6.60
2022-12-12T04:41:06.873Z,6.97
2022-12-12T04:42:10.770Z,7.07
2022-12-12T04:43:17.999Z,7.60
2022-12-12T04:44:22.593Z,8.30
2022-12-12T04:45:38.383Z,7.27
2022-12-12T04:46:42.081Z,7.83
2022-12-12T04:47:46.303Z,8.37
2022-12-12T04:48:53.778Z,7.73
2022-12-12T04:49:58.172Z,8.30
2022-12-12T04:51:01.575Z,8.07
2022-12-12T04:52:07.582Z,7.90
2022-12-12T04:53:18.347Z,8.13
2022-12-12T04:54:49.460Z,7.47
2022-12-12T04:55:56.388Z,7.70
2022-12-12T04:57:02.109Z,8.60
2022-12-12T04:58:05.421Z,11.43
2022-12-12T04:59:08.445Z,11.63
2022-12-12T05:00:12.710Z,11.00
2022-12-12T05:01:36.586Z,12.13
2022-12-12T05:02:47.670Z,11.97
2022-12-12T05:04:13.196Z,10.53
2022-12-12T05:05:25.727Z,9.30
2022-12-12T05:06:48.857Z,10.17
2022-12-12T05:07:57.973Z,9.00
2022-12-12T05:09:02.150Z,7.80
2022-12-12T05:10:06.944Z,9.30
2022-12-12T05:11:08.885Z,8.93
2022-12-12T05:12:10.737Z,8.80
2022-12-12T05:13:18.908Z,10.03
2022-12-12T05:14:20.447Z,10.93
2022-12-12T05:15:22.145Z,10.20
2022-12-12T05:16:35.281Z,8.63
2022-12-12T05:17:43.864Z,9.33
2022-12-12T05:18:46.214Z,10.63
2022-12-12T05:19:47.809Z,10.30
2022-12-12T05:20:49.798Z,9.40
2022-12-12T05:21:51.323Z,9.53
2022-12-12T05:22:52.857Z,8.80
2022-12-12T05:23:54.396Z,8.10
2022-12-12T05:24:55.959Z,8.10
2022-12-12T05:25:57.519Z,8.30
2022-12-12T05:26:59.492Z,7.20
2022-12-12T05:28:01.011Z,7.50
2022-12-12T05:29:07.225Z,7.73
2022-12-12T05:30:09.935Z,7.53
2022-12-12T05:31:11.526Z,7.90
2022-12-12T05:32:13.114Z,7.43
2022-12-12T05:33:14.699Z,6.70
2022-12-12T05:34:16.323Z,7.23
2022-12-12T05:35:18.200Z,6.50
2022-12-12T05:36:20.241Z,6.23
2022-12-12T05:37:21.819Z,4.73
2022-12-12T05:38:23.331Z,5.30
2022-12-12T05:39:24.855Z,5.40
2022-12-12T05:40:26.436Z,6.50
2022-12-12T05:41:28.071Z,6.50
2022-12-12T05:42:29.764Z,6.50
2022-12-12T05:43:31.881Z,6.40
2022-12-12T05:44:33.415Z,6.07
2022-12-12T05:45:35.084Z,5.97
2022-12-12T05:46:36.619Z,7.00
2022-12-12T05:47:38.159Z,6.87
2022-12-12T05:48:39.769Z,6.50
2022-12-12T05:49:41.314Z,8.80
2022-12-12T05:50:42.967Z,9.07
2022-12-12T05:51:45.134Z,9.90
2022-12-12T05:52:46.764Z,9.87
2022-12-12T05:53:48.373Z,10.87
2022-12-12T05:54:50.313Z,11.63
2022-12-12T05:55:52.074Z,12.10
2022-12-12T05:56:53.613Z,11.17
2022-12-12T05:57:55.125Z,11.97
2022-12-12T05:58:56.655Z,10.67
2022-12-12T05:59:58.210Z,11.47
2022-12-12T06:01:03.208Z,10.83
2022-12-12T06:02:05.156Z,11.27
2022-12-12T06:03:06.724Z,11.70
2022-12-12T06:04:08.460Z,13.93
2022-12-12T06:05:10.397Z,13.90
2022-12-12T06:06:12.212Z,11.93
2022-12-12T06:07:13.709Z,11.93
2022-12-12T06:08:15.387Z,14.27
2022-12-12T06:09:16.986Z,16.20
2022-12-12T06:10:18.581Z,15.83
2022-12-12T06:11:20.129Z,16.27
2022-12-12T06:12:22.299Z,16.23
2022-12-12T06:13:23.940Z,18.63
2022-12-12T06:14:26.207Z,17.00
2022-12-12T06:15:27.898Z,19.30
2022-12-12T06:16:29.537Z,18.33
2022-12-12T06:17:33.291Z,15.30
2022-12-12T06:18:36.154Z,13.93
2022-12-12T06:19:37.704Z,13.77
2022-12-12T06:20:39.291Z,14.07
2022-12-12T06:21:40.882Z,15.67
2022-12-12T06:22:42.440Z,12.20
2022-12-12T06:23:44.211Z,13.23
2022-12-12T06:24:45.768Z,12.40
2022-12-12T06:25:50.664Z,13.83
2022-12-12T06:26:52.256Z,21.27
2022-12-12T06:27:53.834Z,25.03
2022-12-12T06:28:56.051Z,23.20
2022-12-12T06:29:57.568Z,22.10
2022-12-12T06:30:59.187Z,19.23
2022-12-12T06:32:00.855Z,18.53
2022-12-12T06:33:02.502Z,14.77
2022-12-12T06:34:04.088Z,16.03
2022-12-12T06:35:06.051Z,21.23
2022-12-12T06:36:11.862Z,19.60
2022-12-12T06:37:17.226Z,24.73
2022-12-12T06:38:19.254Z,26.97
2022-12-12T06:39:20.802Z,18.83
2022-12-12T06:40:22.419Z,24.20
2022-12-12T06:41:25.812Z,21.13
2022-12-12T06:42:27.410Z,21.63
2022-12-12T06:43:28.924Z,23.67
2022-12-12T06:44:30.702Z,20.90
2022-12-12T06:45:32.265Z,18.40
2022-12-12T06:46:34.083Z,27.97
2022-12-12T06:47:35.715Z,26.43
2022-12-12T06:48:37.404Z,32.17
2022-12-12T06:49:38.995Z,35.17
2022-12-12T06:50:41.814Z,26.07
2022-12-12T06:51:44.577Z,24.37
2022-12-12T06:52:46.181Z,36.90
2022-12-12T06:53:48.648Z,25.83
2022-12-12T06:54:50.261Z,28.07
2022-12-12T06:55:51.833Z,33.13
2022-12-12T06:56:53.379Z,29.77
2022-12-12T06:57:54.897Z,28.43
2022-12-12T06:58:59.151Z,23.20
2022-12-12T07:00:00.894Z,21.00
2022-12-12T07:01:02.827Z,19.87
2022-12-12T07:02:04.527Z,21.97
2022-12-12T07:03:06.159Z,21.33
2022-12-12T07:04:07.727Z,20.00
2022-12-12T07:05:09.484Z,21.60
2022-12-12T07:06:11.324Z,21.97
2022-12-12T07:07:12.921Z,23.40
2022-12-12T07:08:16.260Z,20.57
2022-12-12T07:09:19.096Z,16.77
2022-12-12T07:10:21.565Z,17.00
2022-12-12T07:11:25.010Z,17.60
2022-12-12T07:12:26.621Z,21.10
2022-12-12T07:13:28.149Z,16.10
2022-12-12T07:14:29.686Z,14.40
2022-12-12T07:15:31.609Z,15.63
2022-12-12T07:16:34.271Z,14.77
2022-12-12T07:17:35.875Z,15.67
2022-12-12T07:18:37.840Z,17.73
2022-12-12T07:19:39.468Z,20.90
2022-12-12T07:20:42.647Z,19.43
2022-12-12T07:21:44.827Z,16.80
2022-12-12T07:22:46.866Z,15.37
2022-12-12T07:23:48.509Z,18.77
2022-12-12T07:24:52.638Z,17.50
2022-12-12T07:25:54.136Z,15.23
2022-12-12T07:26:55.652Z,19.60
2022-12-12T07:27:57.486Z,17.40
2022-12-12T07:28:59.091Z,12.63
2022-12-12T07:30:00.916Z,16.27
2022-12-12T07:31:07.037Z,16.63
2022-12-12T07:32:08.651Z,13.90
2022-12-12T07:33:11.455Z,16.20
2022-12-12T07:34:13.034Z,13.73
2022-12-12T07:35:14.953Z,15.07
2022-12-12T07:36:17.086Z,14.77
2022-12-12T07:37:18.594Z,13.47
2022-12-12T07:38:20.149Z,14.30
2022-12-12T07:39:21.687Z,13.83
2022-12-12T07:40:23.568Z,15.43
2022-12-12T07:41:25.206Z,14.77
2022-12-12T07:42:26.774Z,14.30
2022-12-12T07:43:28.342Z,12.93
2022-12-12T07:44:29.891Z,15.10
2022-12-12T07:45:31.722Z,13.03
2022-12-12T07:46:33.374Z,16.03
2022-12-12T07:47:35.306Z,26.87
2022-12-12T07:48:37.209Z,19.27
2022-12-12T07:49:38.845Z,19.90
2022-12-12T07:50:41.782Z,23.73
2022-12-12T07:51:48.761Z,23.13
2022-12-12T07:52:50.823Z,27.43
2022-12-12T07:53:52.572Z,38.97
2022-12-12T07:54:54.274Z,30.77
2022-12-12T07:55:56.548Z,35.37
2022-12-12T07:56:59.742Z,40.67
2022-12-12T07:58:01.284Z,34.10
2022-12-12T07:59:02.823Z,32.73
2022-12-12T08:00:09.602Z,36.90
2022-12-12T08:01:17.671Z,45.43
2022-12-12T08:02:19.297Z,34.37
2022-12-12T08:03:20.913Z,36.70
2022-12-12T08:04:22.517Z,37.07
2022-12-12T08:05:24.870Z,36.97
2022-12-12T08:06:26.545Z,33.50
2022-12-12T08:07:28.058Z,31.47
2022-12-12T08:08:29.633Z,29.53
2022-12-12T08:09:31.600Z,27.03
2022-12-12T08:10:33.172Z,29.43
2022-12-12T08:11:34.914Z,30.47
2022-12-12T08:12:36.663Z,28.23
2022-12-12T08:13:39.655Z,27.10
2022-12-12T08:14:41.221Z,26.07
2022-12-12T08:15:43.301Z,26.80
2022-12-12T08:16:44.910Z,25.23
2022-12-12T08:17:46.821Z,26.87
2022-12-12T08:18:49.395Z,25.37
2022-12-12T08:19:51.511Z,25.77
2022-12-12T08:20:53.067Z,24.53
2022-12-12T08:21:54.697Z,24.20
2022-12-12T08:22:56.208Z,25.33
2022-12-12T08:23:59.401Z,24.40
2022-12-12T08:25:02.065Z,24.40
2022-12-12T08:26:09.722Z,24.27
2022-12-12T08:27:15.506Z,23.37
2022-12-12T08:28:18.517Z,25.17
2022-12-12T08:29:20.373Z,25.57
2022-12-12T08:30:22.026Z,23.50
2022-12-12T08:31:24.412Z,24.67
2022-12-12T08:32:26.058Z,25.53
2022-12-12T08:33:28.218Z,25.53
2022-12-12T08:34:29.980Z,26.73
2022-12-12T08:35:32.533Z,26.13
2022-12-12T08:36:35.588Z,25.37
2022-12-12T08:37:37.113Z,25.57
2022-12-12T08:38:38.969Z,23.80
2022-12-12T08:39:40.516Z,23.10
2022-12-12T08:40:42.108Z,22.93
2022-12-12T08:41:50.777Z,22.57
2022-12-12T08:42:52.330Z,23.03
2022-12-12T08:43:53.920Z,21.33
2022-12-12T08:44:55.490Z,19.33
2022-12-12T08:46:01.757Z,18.50
2022-12-12T08:47:03.459Z,18.53
2022-12-12T08:48:06.714Z,20.07
2022-12-12T08:49:09.953Z,20.20
2022-12-12T08:50:12.273Z,22.07
2022-12-12T08:51:14.953Z,24.33
2022-12-12T08:52:16.479Z,20.97
2022-12-12T08:53:18.003Z,20.90
2022-12-12T08:54:19.661Z,20.13
2022-12-12T08:55:21.353Z,16.97
2022-12-12T08:56:23.879Z,16.73
2022-12-12T08:57:26.157Z,15.13
2022-12-12T08:58:27.857Z,16.50
2022-12-12T08:59:29.561Z,17.43
2022-12-12T09:00:31.146Z,17.87
2022-12-12T09:01:32.890Z,17.90
2022-12-12T09:02:34.650Z,17.93
2022-12-12T09:03:36.289Z,18.87
2022-12-12T09:04:38.103Z,20.33
2022-12-12T09:05:44.491Z,18.63
2022-12-12T09:06:46.147Z,19.90
2022-12-12T09:07:47.864Z,18.47
2022-12-12T09:08:50.530Z,21.03
2022-12-12T09:09:52.053Z,22.23
2022-12-12T09:10:53.668Z,24.17
2022-12-12T09:11:55.235Z,26.40
2022-12-12T09:12:56.832Z,26.23
2022-12-12T09:13:58.387Z,24.63
2022-12-12T09:14:59.984Z,24.03
2022-12-12T09:16:01.688Z,26.20
2022-12-12T09:17:03.351Z,26.13
2022-12-12T09:18:05.089Z,25.50
2022-12-12T09:19:06.691Z,29.77
2022-12-12T09:20:10.103Z,28.40
2022-12-12T09:21:11.742Z,30.07
2022-12-12T09:22:13.273Z,28.77
2022-12-12T09:23:14.833Z,27.07
2022-12-12T09:24:16.858Z,30.87
2022-12-12T09:25:19.329Z,29.73
2022-12-12T09:26:20.940Z,32.17
2022-12-12T09:27:22.491Z,28.83
2022-12-12T09:28:26.099Z,32.50
2022-12-12T09:29:27.654Z,33.90
2022-12-12T09:30:29.250Z,35.20
2022-12-12T09:31:30.914Z,36.60
2022-12-12T09:32:32.550Z,36.50
2022-12-12T09:33:34.957Z,39.20
2022-12-12T09:34:39.586Z,38.33
2022-12-12T09:35:41.426Z,35.30
2022-12-12T09:36:43.008Z,35.83
2022-12-12T09:37:44.601Z,35.00
2022-12-12T09:38:46.208Z,36.37
2022-12-12T09:39:47.889Z,38.00
2022-12-12T09:40:54.832Z,37.27
2022-12-12T09:41:56.654Z,36.80
2022-12-12T09:42:58.896Z,38.27
2022-12-12T09:44:08.318Z,38.60
2022-12-12T09:45:09.989Z,39.87
2022-12-12T09:46:22.504Z,28.80
2022-12-12T09:47:36.870Z,38.00
2022-12-12T09:48:44.911Z,34.97
2022-12-12T09:49:53.384Z,36.03
2022-12-12T09:50:55.245Z,35.67
2022-12-12T09:51:57.836Z,35.57
2022-12-12T09:53:04.348Z,31.90
2022-12-12T09:54:06.518Z,33.70
2022-12-12T09:55:34.094Z,26.57
2022-12-12T09:56:52.485Z,22.43
2022-12-12T09:58:09.617Z,18.27
2022-12-12T09:59:27.521Z,21.17
2022-12-12T10:00:34.695Z,17.73
2022-12-12T10:01:39.365Z,18.63
2022-12-12T10:03:15.255Z,18.87
2022-12-12T10:04:37.362Z,13.67
2022-12-12T10:06:13.409Z,17.03
2022-12-12T10:07:17.779Z,17.57
2022-12-12T10:08:54.346Z,16.47
2022-12-12T10:10:14.463Z,16.40
2022-12-12T10:11:44.219Z,13.80
2022-12-12T10:12:47.869Z,13.10
2022-12-12T10:13:49.530Z,13.20
2022-12-12T10:15:32.267Z,13.70
2022-12-12T10:16:34.205Z,12.60
2022-12-12T10:17:41.479Z,12.80
2022-12-12T10:18:47.061Z,10.33
2022-12-12T10:19:52.078Z,8.83
2022-12-12T10:20:57.522Z,8.83
2022-12-12T10:22:14.995Z,9.13
2022-12-12T10:23:27.664Z,8.03
2022-12-12T10:24:52.106Z,9.33
2022-12-12T10:25:59.474Z,5.87
2022-12-12T10:27:10.434Z,6.33
2022-12-12T10:28:19.764Z,4.07
2022-12-12T10:29:25.019Z,3.97
2022-12-12T10:30:30.289Z,3.40
2022-12-12T10:32:00.216Z,3.47
2022-12-12T10:33:19.974Z,2.83
2022-12-12T10:34:21.479Z,3.33
2022-12-12T10:35:38.815Z,3.03
2022-12-12T10:37:14.045Z,3.03
2022-12-12T10:38:49.610Z,2.93
2022-12-12T10:40:12.292Z,3.33
2022-12-12T10:41:31.964Z,3.43
2022-12-12T10:42:39.449Z,2.80
2022-12-12T10:43:53.507Z,3.13
2022-12-12T10:45:32.663Z,3.40
2022-12-12T10:46:58.947Z,2.60
2022-12-12T10:48:01.159Z,2.73
2022-12-12T10:49:13.827Z,2.50
2022-12-12T10:50:27.016Z,2.43
2022-12-12T10:51:29.513Z,3.23
2022-12-12T10:52:31.065Z,2.23
2022-12-12T10:53:34.592Z,2.63
2022-12-12T10:54:44.319Z,2.07
2022-12-12T10:56:00.950Z,1.77
2022-12-12T10:57:25.016Z,1.87
2022-12-12T10:58:35.415Z,1.70
2022-12-12T11:00:07.416Z,1.90
2022-12-12T11:01:38.427Z,2.10
2022-12-12T11:02:44.447Z,2.03
2022-12-12T11:03:49.033Z,1.93
2022-12-12T11:04:59.347Z,2.13
2022-12-12T11:06:06.798Z,2.10
2022-12-12T11:07:20.823Z,2.20
2022-12-12T11:08:25.012Z,2.23
2022-12-12T11:09:28.739Z,2.10
2022-12-12T11:10:38.117Z,2.13
2022-12-12T11:11:39.733Z,2.30
2022-12-12T11:12:41.333Z,2.10
2022-12-12T11:13:52.301Z,1.60
2022-12-12T11:15:01.084Z,2.30
2022-12-12T11:16:13.671Z,2.00
2022-12-12T11:17:26.485Z,1.63
2022-12-12T11:18:29.275Z,1.77
2022-12-12T11:19:37.853Z,2.20
2022-12-12T11:21:07.835Z,1.87
2022-12-12T11:22:13.644Z,1.63
2022-12-12T11:23:22.611Z,1.43
2022-12-12T11:24:30.091Z,1.50
2022-12-12T11:25:33.315Z,1.60
2022-12-12T11:26:49.431Z,1.80
2022-12-12T11:27:52.823Z,1.50
2022-12-12T11:29:03.034Z,1.30
2022-12-12T11:30:08.074Z,1.63
2022-12-12T11:31:14.427Z,1.70
2022-12-12T11:32:27.793Z,1.70
2022-12-12T11:33:51.116Z,1.80
2022-12-12T11:34:58.283Z,2.10
2022-12-12T11:36:01.980Z,2.07
2022-12-12T11:37:03.614Z,2.37
2022-12-12T11:38:14.500Z,2.20
2022-12-12T11:39:27.069Z,2.30
2022-12-12T11:40:32.173Z,1.83
2022-12-12T11:41:57.219Z,2.10
2022-12-12T11:43:27.680Z,2.10
2022-12-12T11:44:35.579Z,1.87
2022-12-12T11:45:37.160Z,1.90
2022-12-12T11:46:38.710Z,1.87
2022-12-12T11:47:45.795Z,2.10
2022-12-12T11:48:47.432Z,1.77
2022-12-12T11:49:52.023Z,2.10
2022-12-12T11:50:53.630Z,1.77
2022-12-12T11:51:56.257Z,1.77
2022-12-12T11:53:01.660Z,2.10
2022-12-12T11:54:07.678Z,1.80
2022-12-12T11:55:17.277Z,1.83
2022-12-12T11:56:24.824Z,1.47
2022-12-12T11:57:46.605Z,1.40
2022-12-12T11:59:08.626Z,1.47
2022-12-12T12:00:14.576Z,1.60
2022-12-12T12:01:26.327Z,2.00
2022-12-12T12:02:48.928Z,1.73
2022-12-12T12:04:53.085Z,1.70
2022-12-12T12:05:55.166Z,1.47
2022-12-12T12:07:03.645Z,1.60
2022-12-12T12:08:26.225Z,1.87
2022-12-12T12:09:48.711Z,1.50
2022-12-12T12:11:05.259Z,1.60
2022-12-12T12:12:17.518Z,1.50
2022-12-12T12:13:25.157Z,1.60
2022-12-12T12:14:47.828Z,1.50
2022-12-12T12:16:17.284Z,1.53
2022-12-12T12:17:26.475Z,2.00
2022-12-12T12:18:56.501Z,3.20
2022-12-12T12:20:21.190Z,2.27
2022-12-12T12:21:43.621Z,2.40
2022-12-12T12:22:58.125Z,2.27
2022-12-12T12:24:20.459Z,4.50
2022-12-12T12:25:33.306Z,2.37
2022-12-12T12:27:09.180Z,2.53
2022-12-12T12:28:34.843Z,1.80
2022-12-12T12:29:43.142Z,2.00
2022-12-12T12:31:10.527Z,1.77
2022-12-12T12:32:25.546Z,1.87
2022-12-12T12:33:39.246Z,1.90
2022-12-12T12:35:21.167Z,2.10
2022-12-12T12:36:26.333Z,2.30
2022-12-12T12:37:59.103Z,2.30
2022-12-12T12:39:30.119Z,2.57
2022-12-12T12:40:38.389Z,2.43
2022-12-12T12:41:45.130Z,2.80
2022-12-12T12:43:27.778Z,2.33
2022-12-12T12:44:59.892Z,2.53
2022-12-12T12:46:15.277Z,2.53
2022-12-12T12:47:19.703Z,2.60
2022-12-12T12:48:53.639Z,2.37
2022-12-12T12:50:01.894Z,2.33
2022-12-12T12:51:31.145Z,2.17
2022-12-12T12:52:36.428Z,2.67
2022-12-12T12:53:46.369Z,2.27
2022-12-12T12:54:49.250Z,2.20
2022-12-12T12:55:58.983Z,2.37
2022-12-12T12:57:25.916Z,2.03
2022-12-12T12:58:36.120Z,2.47
2022-12-12T12:59:43.822Z,2.60
2022-12-12T13:00:51.862Z,2.37
2022-12-12T13:01:55.714Z,2.60
2022-12-12T13:03:19.096Z,2.60
2022-12-12T13:04:31.809Z,2.53
2022-12-12T13:05:36.597Z,2.40
2022-12-12T13:06:46.177Z,2.80
2022-12-12T13:07:47.741Z,2.47
2022-12-12T13:09:03.225Z,2.40
2022-12-12T13:10:30.827Z,2.70
2022-12-12T13:11:39.859Z,2.97
2022-12-12T13:12:50.069Z,3.80
2022-12-12T13:13:54.985Z,3.67
2022-12-12T13:15:24.320Z,3.93
2022-12-12T13:16:32.769Z,3.90
2022-12-12T13:17:48.577Z,3.63
2022-12-12T13:19:05.625Z,3.40
2022-12-12T13:20:16.689Z,3.93
2022-12-12T13:21:30.819Z,3.40
2022-12-12T13:22:54.403Z,3.23
2022-12-12T13:24:05.936Z,2.53
2022-12-12T13:25:37.664Z,2.73
2022-12-12T13:26:52.145Z,2.97
2022-12-12T13:27:57.658Z,2.70
2022-12-12T13:29:07.690Z,2.83
2022-12-12T13:30:22.745Z,2.10
2022-12-12T13:31:55.941Z,2.53
2022-12-12T13:33:20.518Z,2.40
2022-12-12T13:34:26.145Z,2.67
2022-12-12T13:35:45.890Z,2.00
2022-12-12T13:36:50.295Z,2.30
2022-12-12T13:37:53.917Z,1.80
2022-12-12T13:38:57.594Z,2.10
2022-12-12T13:40:01.560Z,2.30
2022-12-12T13:41:06.653Z,2.30
2022-12-12T13:42:10.697Z,2.20
2022-12-12T13:43:48.160Z,1.83
2022-12-12T13:44:50.391Z,1.73
2022-12-12T13:45:52.028Z,1.67
2022-12-12T13:46:53.655Z,2.07
2022-12-12T13:48:10.010Z,1.70
2022-12-12T13:49:23.432Z,1.80
2022-12-12T13:50:25.112Z,1.60
2022-12-12T13:51:33.555Z,1.77
2022-12-12T13:52:41.114Z,1.33
2022-12-12T13:53:43.316Z,2.10
2022-12-12T13:54:47.731Z,1.50
2022-12-12T13:55:49.347Z,1.90
2022-12-12T13:56:53.820Z,1.60
2022-12-12T13:58:08.255Z,1.87
2022-12-12T13:59:27.713Z,1.93
2022-12-12T14:00:30.550Z,1.53
2022-12-12T14:01:35.614Z,2.10
2022-12-12T14:02:44.205Z,1.70
2022-12-12T14:03:46.826Z,1.80
2022-12-12T14:05:13.167Z,1.87
2022-12-12T14:06:19.281Z,1.43
2022-12-12T14:07:27.630Z,2.03
2022-12-12T14:08:34.826Z,1.97
2022-12-12T14:09:48.648Z,1.80
2022-12-12T14:10:56.049Z,1.60
2022-12-12T14:12:16.033Z,1.90
2022-12-12T14:13:26.704Z,2.37
2022-12-12T14:14:28.938Z,2.43
2022-12-12T14:15:32.099Z,2.87
2022-12-12T14:16:35.166Z,2.53
2022-12-12T14:17:42.545Z,2.97
2022-12-12T14:18:50.603Z,2.30
2022-12-12T14:19:54.817Z,2.07
2022-12-12T14:21:03.530Z,3.10
2022-12-12T14:22:05.271Z,2.87
2022-12-12T14:23:23.873Z,2.87
2022-12-12T14:24:34.909Z,2.77
2022-12-12T14:25:38.437Z,2.77
2022-12-12T14:26:39.942Z,2.37
2022-12-12T14:27:50.355Z,2.57
2022-12-12T14:29:16.417Z,2.97
2022-12-12T14:30:59.254Z,2.03
2022-12-12T14:32:13.175Z,2.20
2022-12-12T14:33:17.778Z,2.30
2022-12-12T14:34:46.415Z,2.07
2022-12-12T14:36:26.395Z,2.20
2022-12-12T14:37:59.835Z,2.40
2022-12-12T14:39:39.538Z,2.47
2022-12-12T14:40:46.143Z,2.33
2022-12-12T14:41:48.325Z,2.33
2022-12-12T14:43:15.901Z,2.53
2022-12-12T14:44:37.463Z,2.10
2022-12-12T14:45:51.859Z,2.70
2022-12-12T14:46:53.583Z,2.37
2022-12-12T14:48:21.370Z,2.23
2022-12-12T14:49:22.985Z,2.53
2022-12-12T14:50:24.526Z,2.50
2022-12-12T14:51:30.139Z,2.90
2022-12-12T14:52:31.886Z,2.37
2022-12-12T14:53:39.124Z,2.90
2022-12-12T14:54:40.844Z,3.20
2022-12-12T14:56:06.852Z,2.67
2022-12-12T14:57:08.520Z,3.60